Time;durP1;ratioP1;P1;durP2;ratioP2;P2;SDS_P1;SDS_P2;PMS_P1;PMS_P2;Temp;Humidity;BMP_temperature;BMP_pressure;BME280_temperature;BME280_humidity;BME280_pressure;Samples;Min_cycle;Max_cycle;Signal;HPM_P1;HPM_P2
2021/08/05 00:26:41;;;;;;;;;;;;;;;30.57;40.10;99530.84;4288680;33;33475;-96
2021/08/05 00:29:31;;;;;;;;;;;;;;;30.26;40.79;99527.22;4305914;33;33578;-94
2021/08/05 00:41:41;;;;;;;;;;;;;;;29.27;41.11;99492.91;4360108;27;20060;-94
2021/08/05 04:31:41;;;;;;;;;;;;;;;30.04;41.38;99238.00;4345352;33;20008;-95
2021/08/05 04:37:57;;;;;;;;;;;;;;;29.82;43.54;99238.72;5047918;27;20003;-94
2021/08/05 04:40:45;;;;;;;;;;;;;;;28.88;45.66;99220.25;4276307;33;33871;-95
2021/08/05 04:43:36;;;;;;;;;;;;;;;28.15;47.80;99216.97;4328340;33;35347;-96
2021/08/05 04:46:41;;;;;;;;;;;;;;;28.40;46.94;99222.19;4405451;27;20044;-95
2021/08/05 04:55:44;;;;;;;;;;;;;;;29.08;45.49;99211.69;4726634;27;19991;-92
2021/08/05 04:58:16;;;;;;;;;;;;;;;29.23;44.62;99206.41;4331089;32;34814;-91
2021/08/05 05:00:43;;;;;;;;;;;;;;;29.56;44.46;99195.38;4348955;32;35477;-93
2021/08/05 05:03:11;;;;;;;;;;;;;;;29.40;45.55;99193.69;4360416;32;33822;-88
2021/08/05 05:05:40;;;;;;;;;;;;;;;28.98;47.37;99188.69;4361661;32;34311;-92
2021/08/05 05:08:11;;;;;;;;;;;;;;;28.47;48.51;99186.50;4363607;32;34938;-93
2021/08/05 05:29:21;;;;;;;;;;;;;;;29.04;46.10;99162.97;4654909;27;20546;-87
2021/08/05 05:31:50;;;;;;;;;;;;;;;28.76;47.51;99162.69;4333490;32;34973;-89
2021/08/05 05:34:18;;;;;;;;;;;;;;;29.12;46.41;99167.44;4345394;32;34434;-90
2021/08/05 05:36:46;;;;;;;;;;;;;;;29.10;46.11;99143.47;4345463;32;32589;-89
2021/08/05 05:39:14;;;;;;;;;;;;;;;29.34;45.82;99125.50;4348204;32;33925;-90
2021/08/05 05:41:42;;;;;;;;;;;;;;;29.01;45.42;99101.66;4350114;32;34812;-90
2021/08/05 05:44:09;;;;;;;;;;;;;;;29.60;43.35;99086.66;4373405;32;35370;-92
2021/08/05 05:46:38;;;;;;;;;;;;;;;29.40;43.61;99083.69;4374559;32;33818;-88
2021/08/05 05:49:05;;;;;;;;;;;;;;;29.43;43.98;99078.78;4374902;32;34370;-91
2021/08/05 05:51:33;;;;;;;;;;;;;;;28.92;44.93;99079.47;4374684;32;34015;-89
2021/08/05 05:54:02;;;;;;;;;;;;;;;29.22;43.57;99079.50;4361581;32;32909;-91
2021/08/05 05:56:35;;;;;;;;;;;;;;;29.29;44.36;99098.38;4361255;32;34357;-90
2021/08/05 05:59:03;;;;;;;;;;;;;;;29.38;43.68;99107.19;4374417;32;34719;-90
2021/08/05 06:01:31;;;;;;;;;;;;;;;28.36;45.39;99116.41;4363325;32;35620;-90
2021/08/05 06:04:00;;;;;;;;;;;;;;;28.68;44.98;99118.06;4364263;32;34240;-89
2021/08/05 06:06:29;;;;;;;;;;;;;;;28.88;44.29;99115.72;4364018;32;33985;-90
2021/08/05 06:09:00;;;;;;;;;;;;;;;29.37;43.11;99125.16;4376501;32;34877;-89
2021/08/05 06:11:29;;;;;;;;;;;;;;;29.61;42.38;99136.59;4364363;32;34939;-91
2021/08/05 06:13:56;;;;;;;;;;;;;;;29.95;41.78;99146.78;4364254;32;34513;-91
2021/08/05 06:16:25;;;;;;;;;;;;;;;29.14;42.88;99138.59;4389111;32;33587;-91
2021/08/05 06:18:54;;;;;;;;;;;;;;;29.29;43.04;99127.91;4375248;32;34364;-90
2021/08/05 06:21:22;;;;;;;;;;;;;;;29.77;42.53;99106.88;4361634;32;34784;-90
2021/08/05 06:23:50;;;;;;;;;;;;;;;29.86;42.66;99077.25;4364337;32;34564;-90
2021/08/05 06:26:19;;;;;;;;;;;;;;;29.63;43.26;99059.41;4364615;32;34592;-91
2021/08/05 06:28:47;;;;;;;;;;;;;;;29.48;43.52;99054.91;4357940;32;33893;-89
2021/08/05 06:31:16;;;;;;;;;;;;;;;30.09;42.23;99056.47;4361696;32;33306;-90
2021/08/05 06:33:44;;;;;;;;;;;;;;;29.77;42.97;99053.19;4361559;32;33862;-93
2021/08/05 06:36:12;;;;;;;;;;;;;;;29.81;42.73;99043.75;4361486;32;34204;-89
2021/08/05 06:38:40;;;;;;;;;;;;;;;29.29;43.96;99042.06;4348432;32;36058;-92
2021/08/05 06:41:07;;;;;;;;;;;;;;;30.15;41.59;99042.28;4336710;32;35729;-91
2021/08/05 06:43:39;;;;;;;;;;;;;;;29.50;43.79;99030.56;4349600;32;34167;-93
2021/08/05 06:46:09;;;;;;;;;;;;;;;29.58;43.85;99024.25;4361848;32;33471;-92
2021/08/05 06:48:37;;;;;;;;;;;;;;;29.81;42.51;99008.03;4350422;32;34599;-89
2021/08/05 06:51:04;;;;;;;;;;;;;;;29.81;42.10;98997.28;4349501;32;35746;-85
2021/08/05 06:53:32;;;;;;;;;;;;;;;29.96;41.99;98990.00;4361283;32;34307;-84
2021/08/05 06:56:00;;;;;;;;;;;;;;;30.20;40.78;98987.97;4361922;32;34033;-94
2021/08/05 06:58:30;;;;;;;;;;;;;;;30.04;40.96;98983.69;4350767;32;34761;-93
2021/08/05 07:01:00;;;;;;;;;;;;;;;30.06;40.77;98992.41;4360684;32;34798;-93
2021/08/05 07:03:28;;;;;;;;;;;;;;;30.52;40.31;98991.16;4361660;32;33273;-92
2021/08/05 07:05:56;;;;;;;;;;;;;;;30.40;39.79;98982.75;4362368;32;34835;-92
2021/08/05 07:08:27;;;;;;;;;;;;;;;30.60;39.46;98982.94;4360715;32;33184;-92
2021/08/05 07:11:02;;;;;;;;;;;;;;;30.17;40.32;98974.94;4362204;32;33776;-92
2021/08/05 07:13:37;;;;;;;;;;;;;;;29.53;41.99;98976.53;4367755;32;34388;-94
2021/08/05 07:16:07;;;;;;;;;;;;;;;29.87;42.11;98972.37;4352723;32;34412;-94
2021/08/05 07:18:38;;;;;;;;;;;;;;;29.78;42.96;98968.12;4352195;32;34879;-92
2021/08/05 07:21:11;;;;;;;;;;;;;;;29.73;43.21;98965.16;4351865;32;33965;-91
2021/08/05 07:23:38;;;;;;;;;;;;;;;30.07;41.65;98977.94;4351653;32;35010;-93
2021/08/05 07:26:09;;;;;;;;;;;;;;;30.01;40.68;98989.47;4364261;32;33306;-93
2021/08/05 07:28:37;;;;;;;;;;;;;;;29.89;41.41;98988.28;4345831;32;35369;-94
2021/08/05 07:31:05;;;;;;;;;;;;;;;30.03;41.92;98973.16;4351914;32;36317;-94
2021/08/05 07:33:33;;;;;;;;;;;;;;;30.08;41.71;98976.91;4351901;32;33238;-94
2021/08/05 07:36:03;;;;;;;;;;;;;;;30.39;40.78;98974.88;4352099;32;33524;-94
2021/08/05 07:38:31;;;;;;;;;;;;;;;30.22;40.69;98969.81;4351750;32;35460;-94
2021/08/05 07:41:04;;;;;;;;;;;;;;;30.41;39.99;98952.19;4365285;32;35068;-93
2021/08/05 07:43:32;;;;;;;;;;;;;;;30.41;40.18;98943.28;4365499;32;35635;-93
2021/08/05 07:46:03;;;;;;;;;;;;;;;30.55;40.49;98937.00;4364505;32;32975;-93
2021/08/05 07:48:31;;;;;;;;;;;;;;;30.52;40.67;98937.41;4351864;32;35677;-92
2021/08/05 07:50:58;;;;;;;;;;;;;;;30.31;41.05;98931.03;4363765;32;34447;-93
2021/08/05 07:53:28;;;;;;;;;;;;;;;30.16;40.97;98932.97;4351331;32;34500;-93
2021/08/05 07:55:59;;;;;;;;;;;;;;;30.47;39.47;98935.31;4363534;32;33508;-92
2021/08/05 07:58:28;;;;;;;;;;;;;;;29.97;39.58;98939.84;4351139;32;34837;-93
2021/08/05 08:00:56;;;;;;;;;;;;;;;30.26;38.77;98936.16;4350840;32;34566;-92
2021/08/05 08:03:24;;;;;;;;;;;;;;;30.09;38.65;98940.13;4362307;32;34380;-91
2021/08/05 08:05:52;;;;;;;;;;;;;;;30.25;39.58;98931.81;4360209;32;32255;-91
2021/08/05 08:08:20;;;;;;;;;;;;;;;30.80;38.54;98944.59;4360167;32;34422;-91
2021/08/05 08:10:49;;;;;;;;;;;;;;;30.65;39.53;98958.97;4348407;32;33454;-91
2021/08/05 08:13:26;;;;;;;;;;;;;;;28.71;44.46;98975.66;4349099;32;34863;-90
2021/08/05 08:15:54;;;;;;;;;;;;;;;27.64;45.88;98997.84;4347311;32;32477;-90
2021/08/05 08:18:22;;;;;;;;;;;;;;;26.90;49.77;99016.84;4364400;32;34731;-91
2021/08/05 08:20:54;;;;;;;;;;;;;;;26.99;50.10;99051.41;4368921;32;35791;-90
2021/08/05 08:23:23;;;;;;;;;;;;;;;26.17;51.91;99091.47;4352705;32;34951;-89
2021/08/05 08:25:50;;;;;;;;;;;;;;;25.42;54.72;99122.34;4378267;32;33299;-89
2021/08/05 08:28:18;;;;;;;;;;;;;;;26.10;53.61;99127.78;4350356;32;35617;-92
2021/08/05 08:30:48;;;;;;;;;;;;;;;26.47;52.66;99127.38;4355147;32;35143;-91
2021/08/05 08:33:16;;;;;;;;;;;;;;;26.29;53.60;99110.69;4367075;32;34592;-91
2021/08/05 08:35:43;;;;;;;;;;;;;;;26.13;52.37;99111.47;4358233;32;33995;-91
2021/08/05 08:38:12;;;;;;;;;;;;;;;27.17;49.83;99110.00;4363614;32;33291;-91
2021/08/05 08:40:40;;;;;;;;;;;;;;;27.39;49.50;99105.00;4376816;32;34421;-91
2021/08/05 08:43:07;;;;;;;;;;;;;;;27.64;48.93;99099.53;4384825;32;34626;-90
2021/08/05 08:45:43;;;;;;;;;;;;;;;27.54;48.92;99090.91;4377951;32;33934;-89
2021/08/05 08:48:12;;;;;;;;;;;;;;;27.95;48.28;99086.19;4389757;32;34327;-89
2021/08/05 08:50:40;;;;;;;;;;;;;;;28.09;47.55;99089.13;4375479;32;36541;-93
2021/08/05 08:53:09;;;;;;;;;;;;;;;28.55;45.70;99093.69;4381142;32;34394;-91
2021/08/05 08:55:41;;;;;;;;;;;;;;;27.53;48.17;99092.72;4369300;32;32417;-93
2021/08/05 08:58:11;;;;;;;;;;;;;;;27.52;47.97;99085.69;4367168;32;34979;-93
2021/08/05 09:00:40;;;;;;;;;;;;;;;27.64;47.77;99072.78;4376640;32;34266;-92
2021/08/05 09:03:09;;;;;;;;;;;;;;;28.04;46.82;99095.03;4364376;32;33634;-93
2021/08/05 09:05:38;;;;;;;;;;;;;;;27.48;48.87;99092.41;4377213;32;33621;-92
2021/08/05 09:08:06;;;;;;;;;;;;;;;27.61;47.90;99086.50;4363848;32;34223;-93
2021/08/05 09:10:35;;;;;;;;;;;;;;;27.80;48.32;99071.84;4364012;32;34922;-93
2021/08/05 09:13:03;;;;;;;;;;;;;;;28.54;46.83;99060.69;4364011;32;33207;-92
2021/08/05 09:15:46;;;;;;;;;;;;;;;28.67;45.47;99046.72;4388152;32;33277;-90
2021/08/05 09:18:28;;;;;;;;;;;;;;;28.26;46.96;99036.31;4363365;32;33179;-92
2021/08/05 09:21:23;;;;;;;;;;;;;;;28.46;46.45;99012.53;4363331;32;35025;-92
2021/08/05 09:24:12;;;;;;;;;;;;;;;28.12;48.20;98982.53;4359370;32;34366;-91
2021/08/05 09:26:42;;;;;;;;;;;;;;;28.13;47.61;98962.78;4348030;32;32522;-94
2021/08/05 09:29:18;;;;;;;;;;;;;;;28.05;48.34;98944.06;4354586;32;34688;-92
2021/08/05 09:31:45;;;;;;;;;;;;;;;27.84;49.02;98936.69;4348603;32;34606;-91
2021/08/05 09:34:15;;;;;;;;;;;;;;;28.39;48.03;98932.06;4372597;32;33782;-91
2021/08/05 09:36:43;;;;;;;;;;;;;;;28.53;48.29;98933.09;4360054;32;33862;-90
2021/08/05 09:39:18;;;;;;;;;;;;;;;28.63;48.15;98916.75;4360192;32;33484;-90
2021/08/05 09:41:56;;;;;;;;;;;;;;;28.53;48.74;98905.47;4359907;32;35183;-91
2021/08/05 09:44:24;;;;;;;;;;;;;;;29.16;47.31;98897.88;4372172;32;34040;-89
2021/08/05 09:47:06;;;;;;;;;;;;;;;29.14;47.87;98891.84;4360209;32;33780;-92
2021/08/05 09:49:34;;;;;;;;;;;;;;;28.89;48.22;98878.78;4359781;32;34779;-90
2021/08/05 09:52:06;;;;;;;;;;;;;;;29.31;47.90;98877.22;4318363;32;1041619;-90
2021/08/05 09:54:37;;;;;;;;;;;;;;;29.11;48.40;98868.13;4359812;32;34609;-91
2021/08/05 09:57:07;;;;;;;;;;;;;;;29.39;47.33;98848.63;4359722;32;33836;-91
2021/08/05 09:59:37;;;;;;;;;;;;;;;29.30;47.33;98831.81;4347917;32;34949;-92
2021/08/05 10:02:09;;;;;;;;;;;;;;;29.35;47.86;98807.13;4348051;32;35244;-92
2021/08/05 10:04:43;;;;;;;;;;;;;;;29.16;47.28;98785.25;4349596;32;34458;-90
2021/08/05 10:07:20;;;;;;;;;;;;;;;29.56;46.95;98760.66;4352671;32;33759;-92
2021/08/05 10:09:55;;;;;;;;;;;;;;;29.72;45.85;98728.16;4360455;32;34594;-90
2021/08/05 10:12:31;;;;;;;;;;;;;;;28.81;46.69;98728.78;4347644;32;34519;-92
2021/08/05 10:15:11;;;;;;;;;;;;;;;28.11;49.13;98739.06;4348088;32;35856;-90
2021/08/05 10:17:40;;;;;;;;;;;;;;;28.20;48.98;98764.72;4348628;32;33807;-89
2021/08/05 10:20:10;;;;;;;;;;;;;;;28.23;49.29;98819.78;4348330;32;35930;-91
2021/08/05 10:22:40;;;;;;;;;;;;;;;28.72;48.05;98867.44;4360726;32;35199;-92
2021/08/05 10:25:10;;;;;;;;;;;;;;;28.22;48.69;98901.09;4347182;32;36124;-91
2021/08/05 10:27:39;;;;;;;;;;;;;;;28.95;47.33;98902.16;4344329;32;33826;-93
2021/08/05 10:30:10;;;;;;;;;;;;;;;28.95;47.07;98904.84;4358738;32;33839;-91
2021/08/05 10:32:40;;;;;;;;;;;;;;;28.47;49.05;98917.75;4364690;32;34837;-92
2021/08/05 10:35:09;;;;;;;;;;;;;;;28.96;47.61;98925.28;4352660;32;34233;-91
2021/08/05 10:37:37;;;;;;;;;;;;;;;29.27;47.09;98937.62;4352484;32;34907;-92
2021/08/05 10:40:06;;;;;;;;;;;;;;;29.36;46.83;98946.41;4365694;32;34924;-92
2021/08/05 10:42:36;;;;;;;;;;;;;;;29.26;47.04;98953.94;4359510;32;35497;-89
2021/08/05 10:45:05;;;;;;;;;;;;;;;29.52;46.71;98963.28;4361108;32;34209;-90
2021/08/05 10:47:40;;;;;;;;;;;;;;;29.41;47.31;98959.25;4362911;32;34126;-91
2021/08/05 10:50:09;;;;;;;;;;;;;;;28.90;47.82;98960.84;4350850;32;36174;-91
2021/08/05 10:52:37;;;;;;;;;;;;;;;29.02;47.12;98937.09;4349164;32;35496;-90
2021/08/05 10:55:05;;;;;;;;;;;;;;;29.13;46.92;98923.22;4361191;32;35006;-90
2021/08/05 10:57:34;;;;;;;;;;;;;;;29.69;46.05;98916.44;4361281;32;34306;-90
2021/08/05 11:00:09;;;;;;;;;;;;;;;29.79;46.22;98924.97;4349242;32;34780;-91
2021/08/05 11:02:50;;;;;;;;;;;;;;;30.13;46.24;98906.50;4349081;32;34493;-91
2021/08/05 11:05:24;;;;;;;;;;;;;;;29.96;46.86;98901.41;4361306;32;35217;-91
2021/08/05 11:08:07;;;;;;;;;;;;;;;30.22;46.42;98897.28;4361589;32;32913;-92
2021/08/05 11:10:37;;;;;;;;;;;;;;;30.19;46.00;98897.66;4360699;32;34052;-91
2021/08/05 11:13:08;;;;;;;;;;;;;;;29.67;47.17;98894.31;4348665;32;35852;-92
2021/08/05 11:15:36;;;;;;;;;;;;;;;30.29;45.99;98900.84;4360970;32;34274;-90
2021/08/05 11:18:16;;;;;;;;;;;;;;;30.11;46.85;98911.22;4360767;32;34919;-91
2021/08/05 11:20:47;;;;;;;;;;;;;;;29.92;47.17;98916.25;4361105;32;34992;-92
2021/08/05 11:25:58;;;;;;;;;;;;;;;30.25;45.90;98920.22;4373342;32;34667;-90
2021/08/05 11:28:26;;;;;;;;;;;;;;;30.31;45.43;98922.12;4355194;32;33956;-91
2021/08/05 11:30:58;;;;;;;;;;;;;;;30.00;45.94;98923.34;4360042;32;34617;-91
2021/08/05 11:33:39;;;;;;;;;;;;;;;30.43;44.56;98917.88;4373467;32;35116;-91
2021/08/05 11:36:25;;;;;;;;;;;;;;;30.45;45.76;98909.63;4361203;32;34500;-91
2021/08/05 11:39:00;;;;;;;;;;;;;;;30.65;44.64;98902.53;4361187;32;32196;-91
2021/08/05 11:41:48;;;;;;;;;;;;;;;30.51;44.98;98910.72;4360449;32;34612;-91
2021/08/05 11:44:29;;;;;;;;;;;;;;;30.67;44.86;98913.06;4336710;32;35996;-93
2021/08/05 11:47:05;;;;;;;;;;;;;;;30.61;45.28;98914.72;4361315;32;34496;-91
2021/08/05 11:49:34;;;;;;;;;;;;;;;29.91;45.66;98909.22;4361096;32;34923;-91
2021/08/05 11:52:11;;;;;;;;;;;;;;;30.23;43.28;98901.59;4336207;32;35272;-93
2021/08/05 11:54:44;;;;;;;;;;;;;;;30.72;42.16;98893.69;4360759;32;34667;-94
2021/08/05 11:57:13;;;;;;;;;;;;;;;29.87;44.67;98891.81;4348435;32;34810;-93
2021/08/05 11:59:42;;;;;;;;;;;;;;;30.19;43.51;98884.22;4348812;32;34912;-92
2021/08/05 12:02:13;;;;;;;;;;;;;;;30.34;42.85;98889.47;4360640;32;34156;-90
2021/08/05 12:04:42;;;;;;;;;;;;;;;29.50;43.69;98877.62;4362125;32;34373;-91
2021/08/05 12:07:22;;;;;;;;;;;;;;;30.00;43.27;98866.94;4363279;32;34408;-91
2021/08/05 12:10:01;;;;;;;;;;;;;;;30.24;42.18;98873.72;4363592;32;34523;-90
2021/08/05 12:12:33;;;;;;;;;;;;;;;29.96;43.25;98869.19;4351344;32;35968;-92
2021/08/05 12:15:02;;;;;;;;;;;;;;;29.06;45.48;98873.22;4364024;32;34159;-93
2021/08/05 12:17:36;;;;;;;;;;;;;;;29.25;43.32;98869.06;4352304;32;34597;-92
2021/08/05 12:20:05;;;;;;;;;;;;;;;29.91;42.34;98868.94;4369410;32;32575;-92
2021/08/05 12:22:56;;;;;;;;;;;;;;;29.63;42.94;98874.25;4358289;32;34363;-92
2021/08/05 12:25:29;;;;;;;;;;;;;;;29.40;45.88;98877.94;4359501;32;33188;-91
2021/08/05 12:28:08;;;;;;;;;;;;;;;30.03;43.54;98868.41;4369197;32;35654;-88
2021/08/05 12:30:47;;;;;;;;;;;;;;;29.69;44.71;98873.47;4354630;32;34940;-91
2021/08/05 12:33:23;;;;;;;;;;;;;;;29.60;45.22;98864.72;4359164;32;35062;-90
2021/08/05 12:36:07;;;;;;;;;;;;;;;29.51;46.33;98859.69;4352380;32;35149;-93
2021/08/05 12:38:46;;;;;;;;;;;;;;;29.02;48.47;98858.50;4360895;32;33014;-91
2021/08/05 12:41:28;;;;;;;;;;;;;;;29.63;46.29;98864.31;4348396;32;32549;-92
2021/08/05 12:44:09;;;;;;;;;;;;;;;29.32;47.39;98854.75;4360748;32;34055;-92
2021/08/05 12:46:37;;;;;;;;;;;;;;;29.22;47.32;98856.06;4360331;32;33713;-90
2021/08/05 12:49:05;;;;;;;;;;;;;;;29.60;45.99;98859.34;4360417;32;35276;-92
2021/08/05 12:51:33;;;;;;;;;;;;;;;29.23;46.46;98861.22;4336673;32;32615;-92
2021/08/05 12:54:11;;;;;;;;;;;;;;;29.78;45.28;98871.47;4348331;32;34474;-92
2021/08/05 12:56:43;;;;;;;;;;;;;;;29.52;45.44;98859.50;4337698;32;35192;-89
2021/08/05 12:59:14;;;;;;;;;;;;;;;29.25;46.54;98855.66;4360751;32;34606;-92
2021/08/05 13:01:44;;;;;;;;;;;;;;;29.32;45.57;98852.06;4360474;32;33599;-91
2021/08/05 13:04:24;;;;;;;;;;;;;;;28.48;47.11;98850.59;4349117;32;33594;-92
2021/08/05 13:06:55;;;;;;;;;;;;;;;28.97;47.79;98841.16;4349558;32;33881;-94
2021/08/05 13:09:33;;;;;;;;;;;;;;;29.28;48.45;98848.09;4348605;32;34265;-90
2021/08/05 13:12:02;;;;;;;;;;;;;;;29.50;47.71;98853.47;4347326;32;32403;-92
2021/08/05 13:14:31;;;;;;;;;;;;;;;29.77;46.31;98853.69;4347515;32;33193;-90
2021/08/05 13:17:05;;;;;;;;;;;;;;;29.54;45.67;98846.69;4347821;32;34554;-92
2021/08/05 13:19:53;;;;;;;;;;;;;;;29.94;44.27;98844.41;4359801;32;33428;-91
2021/08/05 13:22:39;;;;;;;;;;;;;;;29.74;46.19;98846.91;4359809;32;32328;-94
2021/08/05 13:25:08;;;;;;;;;;;;;;;29.71;44.84;98855.31;4372278;32;33874;-90
2021/08/05 13:27:37;;;;;;;;;;;;;;;29.64;44.61;98843.72;4344238;33;33388;-92
2021/08/05 13:30:14;;;;;;;;;;;;;;;29.79;44.44;98849.81;4345581;32;32965;-90
2021/08/05 13:32:43;;;;;;;;;;;;;;;29.49;44.58;98846.47;4372061;32;32076;-92
2021/08/05 13:35:12;;;;;;;;;;;;;;;29.28;46.18;98845.44;4347514;32;34175;-90
2021/08/05 13:37:40;;;;;;;;;;;;;;;29.19;46.80;98851.91;4347416;32;33390;-91
2021/08/05 13:40:17;;;;;;;;;;;;;;;29.42;45.67;98843.69;4347045;32;34311;-90
2021/08/05 13:42:45;;;;;;;;;;;;;;;29.06;47.24;98851.75;4359555;32;32628;-92
2021/08/05 13:45:16;;;;;;;;;;;;;;;28.12;49.79;98863.88;4349473;32;33825;-90
2021/08/05 13:47:43;;;;;;;;;;;;;;;27.47;50.64;98860.72;4350370;32;33421;-92
2021/08/05 13:50:14;;;;;;;;;;;;;;;26.54;52.50;98876.50;4346700;32;34200;-91
2021/08/05 13:52:42;;;;;;;;;;;;;;;25.42;56.93;98869.06;4361044;32;32648;-92
2021/08/05 13:55:11;;;;;;;;;;;;;;;26.29;54.57;98868.53;4362189;32;34906;-92
2021/08/05 13:57:39;;;;;;;;;;;;;;;27.10;52.71;98870.28;4349283;32;33242;-93
2021/08/05 14:00:08;;;;;;;;;;;;;;;27.49;51.39;98862.19;4359345;32;35163;-91
2021/08/05 14:02:41;;;;;;;;;;;;;;;26.26;54.11;98866.22;4347867;32;34706;-92
2021/08/05 14:05:10;;;;;;;;;;;;;;;26.77;52.68;98867.75;4353314;32;35852;-93
2021/08/05 14:07:38;;;;;;;;;;;;;;;26.99;51.83;98872.34;4367530;32;34346;-92
2021/08/05 14:10:06;;;;;;;;;;;;;;;26.62;53.10;98873.78;4368088;32;32905;-92
2021/08/05 14:12:35;;;;;;;;;;;;;;;27.05;51.98;98875.31;4350853;32;32423;-93
2021/08/05 14:15:02;;;;;;;;;;;;;;;27.69;49.85;98872.41;4348497;32;36351;-92
2021/08/05 14:17:30;;;;;;;;;;;;;;;27.99;49.25;98867.16;4348428;32;34862;-91
2021/08/05 14:19:58;;;;;;;;;;;;;;;28.45;48.28;98861.69;4346885;32;33660;-92
2021/08/05 14:22:26;;;;;;;;;;;;;;;28.23;49.32;98858.06;4347925;32;33883;-93
2021/08/05 14:24:53;;;;;;;;;;;;;;;28.79;47.48;98851.44;4347465;32;34590;-93
2021/08/05 14:27:23;;;;;;;;;;;;;;;28.85;47.57;98861.41;4345079;32;34966;-93
2021/08/05 14:29:53;;;;;;;;;;;;;;;28.58;47.76;98852.16;4339149;32;34803;-92
2021/08/05 14:32:21;;;;;;;;;;;;;;;28.29;48.35;98862.72;4347164;32;34449;-91
2021/08/05 14:34:50;;;;;;;;;;;;;;;28.03;49.44;98870.31;4359413;32;34143;-94
2021/08/05 14:37:18;;;;;;;;;;;;;;;28.01;48.61;98862.47;4359273;32;34454;-93
2021/08/05 14:39:46;;;;;;;;;;;;;;;27.54;49.97;98868.88;4346627;32;33123;-92
2021/08/05 14:42:15;;;;;;;;;;;;;;;26.31;53.16;98885.22;4346677;32;33158;-91
2021/08/05 14:44:43;;;;;;;;;;;;;;;25.47;54.99;98882.69;4347037;32;35025;-92
2021/08/05 14:47:10;;;;;;;;;;;;;;;26.03;53.80;98890.09;4346964;32;35633;-92
2021/08/05 14:49:39;;;;;;;;;;;;;;;25.92;53.84;98895.75;4347195;32;33247;-91
2021/08/05 14:52:08;;;;;;;;;;;;;;;26.34;52.87;98900.91;4359374;32;33962;-92
2021/08/05 14:54:36;;;;;;;;;;;;;;;25.10;55.83;98907.06;4347118;32;33768;-92
2021/08/05 14:57:05;;;;;;;;;;;;;;;23.72;59.77;98922.78;4358802;32;34837;-92
2021/08/05 14:59:36;;;;;;;;;;;;;;;24.90;54.89;98917.16;4347119;32;34436;-92
2021/08/05 15:02:04;;;;;;;;;;;;;;;24.75;56.55;98914.28;4347430;32;33565;-92
2021/08/05 15:04:32;;;;;;;;;;;;;;;25.80;54.58;98917.41;4347133;32;34296;-91
2021/08/05 15:07:00;;;;;;;;;;;;;;;25.85;53.12;98914.25;4359729;32;34985;-91
2021/08/05 15:09:28;;;;;;;;;;;;;;;25.34;54.72;98915.19;4358996;32;34414;-92
2021/08/05 15:11:55;;;;;;;;;;;;;;;26.56;51.27;98924.41;4347147;32;32952;-92
2021/08/05 15:14:23;;;;;;;;;;;;;;;25.82;52.87;98938.56;4346851;32;34657;-91
2021/08/05 15:16:52;;;;;;;;;;;;;;;25.02;54.30;98937.19;4347401;32;35209;-93
2021/08/05 15:19:45;;;;;;;;;;;;;;;25.87;51.28;98952.25;4359661;32;35239;-92
2021/08/05 15:22:13;;;;;;;;;;;;;;;25.05;54.30;98941.37;4347170;32;33879;-91
2021/08/05 15:24:41;;;;;;;;;;;;;;;25.58;52.91;98947.38;4347547;32;35908;-90
2021/08/05 15:27:08;;;;;;;;;;;;;;;25.46;53.12;98949.53;4360505;32;35247;-91
2021/08/05 15:29:36;;;;;;;;;;;;;;;25.10;54.25;98944.38;4337640;32;34819;-90
2021/08/05 15:32:04;;;;;;;;;;;;;;;25.38;53.39;98952.19;4349232;32;33572;-91
2021/08/05 15:34:33;;;;;;;;;;;;;;;24.83;54.84;98951.59;4373197;32;34172;-90
2021/08/05 15:37:01;;;;;;;;;;;;;;;24.34;56.19;98949.44;4348532;32;35074;-90
2021/08/05 15:39:29;;;;;;;;;;;;;;;25.42;53.43;98953.50;4348883;32;34584;-91
2021/08/05 15:41:56;;;;;;;;;;;;;;;25.66;52.94;98944.72;4351937;32;32668;-91
2021/08/05 15:44:28;;;;;;;;;;;;;;;26.14;51.44;98948.47;4368107;32;34560;-91
2021/08/05 15:46:55;;;;;;;;;;;;;;;26.10;51.79;98925.81;4356104;32;35109;-90
2021/08/05 15:49:23;;;;;;;;;;;;;;;26.66;49.29;98939.22;4369943;32;34673;-90
2021/08/05 15:51:51;;;;;;;;;;;;;;;24.98;54.30;98931.38;4359296;32;33719;-91
2021/08/05 15:54:18;;;;;;;;;;;;;;;25.75;51.88;98929.59;4358549;32;34215;-92
2021/08/05 15:56:46;;;;;;;;;;;;;;;25.92;51.66;98933.94;4353730;32;34992;-92
2021/08/05 15:59:14;;;;;;;;;;;;;;;26.31;50.14;98932.44;4361428;32;33784;-91
2021/08/05 16:01:42;;;;;;;;;;;;;;;26.29;49.46;98939.81;4361088;32;34122;-91
2021/08/05 16:04:11;;;;;;;;;;;;;;;27.11;47.85;98938.75;4348618;32;34799;-92
2021/08/05 16:06:38;;;;;;;;;;;;;;;27.27;47.44;98944.03;4348726;32;34841;-90
2021/08/05 16:09:05;;;;;;;;;;;;;;;26.58;48.58;98949.94;4348880;32;34978;-90
2021/08/05 16:11:35;;;;;;;;;;;;;;;26.57;48.10;98947.44;4372887;32;34066;-90
2021/08/05 16:14:02;;;;;;;;;;;;;;;26.64;48.40;98949.22;4360467;32;34924;-90
2021/08/05 16:16:31;;;;;;;;;;;;;;;26.18;49.62;98940.97;4360421;32;36013;-90
2021/08/05 16:19:00;;;;;;;;;;;;;;;27.05;47.20;98939.47;4348579;32;34482;-90
2021/08/05 16:21:28;;;;;;;;;;;;;;;26.37;48.03;98934.44;4360908;32;33369;-91
2021/08/05 16:23:56;;;;;;;;;;;;;;;27.29;46.37;98930.50;4360017;32;34754;-91
2021/08/05 16:26:23;;;;;;;;;;;;;;;27.58;45.33;98937.88;4348733;32;35889;-88
2021/08/05 16:28:51;;;;;;;;;;;;;;;27.57;46.00;98944.22;4366356;32;34286;-87
2021/08/05 16:31:18;;;;;;;;;;;;;;;28.05;44.46;98936.03;4360928;32;32957;-91
2021/08/05 16:33:46;;;;;;;;;;;;;;;28.42;43.60;98933.56;4348693;32;35202;-92
2021/08/05 16:36:14;;;;;;;;;;;;;;;28.03;44.69;98930.06;4347890;32;34894;-92
2021/08/05 16:38:41;;;;;;;;;;;;;;;28.19;44.02;98934.44;4348736;32;34874;-89
2021/08/05 16:41:09;;;;;;;;;;;;;;;27.49;45.37;98939.75;4348511;32;35120;-92
2021/08/05 16:43:36;;;;;;;;;;;;;;;27.69;45.00;98941.97;4348577;32;32968;-91
2021/08/05 16:46:03;;;;;;;;;;;;;;;28.27;43.49;98950.44;4348261;32;35703;-91
2021/08/05 16:48:33;;;;;;;;;;;;;;;28.16;43.51;98945.50;4348516;32;33133;-91
2021/08/05 16:51:01;;;;;;;;;;;;;;;27.86;43.95;98949.91;4360712;32;32986;-90
2021/08/05 16:53:28;;;;;;;;;;;;;;;28.13;43.37;98954.75;4360155;32;33939;-92
2021/08/05 16:55:56;;;;;;;;;;;;;;;27.96;43.33;98958.50;4348370;32;32895;-91
2021/08/05 16:58:24;;;;;;;;;;;;;;;27.55;44.59;98959.63;4360886;32;34171;-90
2021/08/05 17:00:51;;;;;;;;;;;;;;;26.48;47.16;98957.28;4348400;32;34610;-91
2021/08/05 17:03:20;;;;;;;;;;;;;;;27.45;44.92;98961.69;4348614;32;35035;-90
2021/08/05 17:05:48;;;;;;;;;;;;;;;26.76;46.56;98954.25;4360778;32;34258;-90
2021/08/05 17:08:16;;;;;;;;;;;;;;;26.99;46.07;98962.34;4360637;32;34269;-91
2021/08/05 17:10:44;;;;;;;;;;;;;;;26.97;46.14;98965.22;4347968;32;34060;-92
2021/08/05 17:13:11;;;;;;;;;;;;;;;25.75;48.96;98966.94;4347960;32;34959;-90
2021/08/05 17:15:39;;;;;;;;;;;;;;;26.00;47.92;98967.78;4347824;32;34332;-91
2021/08/05 17:18:07;;;;;;;;;;;;;;;25.31;49.92;98971.44;4348206;32;34658;-91
2021/08/05 17:20:35;;;;;;;;;;;;;;;25.28;49.99;98965.63;4339435;32;33813;-90
2021/08/05 17:23:02;;;;;;;;;;;;;;;25.72;48.76;98961.94;4353952;32;35243;-91
2021/08/05 17:25:30;;;;;;;;;;;;;;;25.54;49.18;98967.38;4368537;32;34889;-91
2021/08/05 17:27:57;;;;;;;;;;;;;;;25.95;48.07;98970.13;4349011;32;34372;-91
2021/08/05 17:30:25;;;;;;;;;;;;;;;26.50;46.68;98964.13;4361398;32;35317;-91
2021/08/05 17:32:53;;;;;;;;;;;;;;;24.55;51.47;98974.88;4349662;32;35477;-92
2021/08/05 17:35:34;;;;;;;;;;;;;;;25.68;48.86;98974.75;4349559;32;34767;-93
2021/08/05 17:38:03;;;;;;;;;;;;;;;25.53;48.67;98974.56;4347752;32;35315;-90
2021/08/05 17:40:31;;;;;;;;;;;;;;;24.69;51.16;98979.66;4360413;32;34355;-92
2021/08/05 17:42:58;;;;;;;;;;;;;;;23.02;56.35;98977.28;4360512;32;34613;-91
2021/08/05 17:45:27;;;;;;;;;;;;;;;23.60;53.90;98975.34;4348054;32;34557;-92
2021/08/05 17:47:56;;;;;;;;;;;;;;;24.75;51.04;98980.84;4347126;32;34482;-91
2021/08/05 17:50:24;;;;;;;;;;;;;;;24.61;51.57;98985.72;4347854;32;34495;-92
2021/08/05 17:52:52;;;;;;;;;;;;;;;25.00;49.83;98979.97;4359962;32;34408;-92
2021/08/05 17:55:21;;;;;;;;;;;;;;;25.16;49.61;98984.56;4348015;32;35745;-92
2021/08/05 17:57:50;;;;;;;;;;;;;;;25.71;48.30;98978.94;4347852;32;34922;-91
2021/08/05 18:00:20;;;;;;;;;;;;;;;25.60;48.38;98988.91;4360204;32;33014;-92